sensor_id;sensor_type;location;lat;lon;timestamp;pressure;altitude;pressure_sealevel;temperature;humidity
54389;BME280;40975;50.390;8.640;2022-07-10T00:00:26;99904.50;;;12.54;100.00
54389;BME280;40975;50.390;8.640;2022-07-10T00:02:51;99902.13;;;12.41;100.00
54389;BME280;40975;50.390;8.640;2022-07-10T00:05:18;99898.75;;;12.39;100.00
54389;BME280;40975;50.390;8.640;2022-07-10T00:07:44;99897.31;;;12.35;100.00
54389;BME280;40975;50.390;8.640;2022-07-10T00:10:09;99901.94;;;12.33;100.00
54389;BME280;40975;50.390;8.640;2022-07-10T00:12:35;99891.16;;;12.25;100.00
54389;BME280;40975;50.390;8.640;2022-07-10T00:15:00;99905.03;;;12.28;100.00
54389;BME280;40975;50.390;8.640;2022-07-10T00:17:26;99902.50;;;12.27;100.00
54389;BME280;40975;50.390;8.640;2022-07-10T00:19:51;99906.28;;;12.24;100.00
54389;BME280;40975;50.390;8.640;2022-07-10T00:22:17;99903.06;;;12.21;100.00
54389;BME280;40975;50.390;8.640;2022-07-10T00:24:42;99903.19;;;12.19;100.00
54389;BME280;40975;50.390;8.640;2022-07-10T00:27:07;99901.81;;;12.15;100.00
54389;BME280;40975;50.390;8.640;2022-07-10T00:29:33;99904.72;;;12.12;100.00
54389;BME280;40975;50.390;8.640;2022-07-10T00:31:58;99899.00;;;12.07;100.00
54389;BME280;40975;50.390;8.640;2022-07-10T00:34:23;99894.66;;;12.06;100.00
54389;BME280;40975;50.390;8.640;2022-07-10T00:36:49;99900.09;;;12.04;100.00
54389;BME280;40975;50.390;8.640;2022-07-10T00:39:14;99891.22;;;11.94;100.00
54389;BME280;40975;50.390;8.640;2022-07-10T00:41:39;99908.47;;;12.00;100.00
54389;BME280;40975;50.390;8.640;2022-07-10T00:44:05;99912.00;;;12.00;100.00
54389;BME280;40975;50.390;8.640;2022-07-10T00:46:31;99917.88;;;12.04;100.00
54389;BME280;40975;50.390;8.640;2022-07-10T00:48:57;99915.94;;;12.06;100.00
54389;BME280;40975;50.390;8.640;2022-07-10T00:51:28;99909.75;;;12.05;100.00
54389;BME280;40975;50.390;8.640;2022-07-10T00:53:55;99920.41;;;12.05;100.00
54389;BME280;40975;50.390;8.640;2022-07-10T00:56:23;99916.34;;;12.01;100.00
54389;BME280;40975;50.390;8.640;2022-07-10T00:58:50;99914.25;;;12.05;100.00
54389;BME280;40975;50.390;8.640;2022-07-10T01:01:16;99921.09;;;12.07;100.00
54389;BME280;40975;50.390;8.640;2022-07-10T01:03:42;99910.63;;;12.06;100.00
54389;BME280;40975;50.390;8.640;2022-07-10T01:06:07;99904.44;;;12.05;100.00
54389;BME280;40975;50.390;8.640;2022-07-10T01:08:33;99913.69;;;12.11;100.00
54389;BME280;40975;50.390;8.640;2022-07-10T01:11:00;99913.00;;;12.19;100.00
54389;BME280;40975;50.390;8.640;2022-07-10T01:13:26;99907.41;;;12.22;100.00
54389;BME280;40975;50.390;8.640;2022-07-10T01:15:52;99906.16;;;12.26;100.00
54389;BME280;40975;50.390;8.640;2022-07-10T01:18:18;99912.03;;;12.29;100.00
54389;BME280;40975;50.390;8.640;2022-07-10T01:20:43;99909.66;;;12.26;100.00
54389;BME280;40975;50.390;8.640;2022-07-10T01:23:08;99906.16;;;12.16;100.00
54389;BME280;40975;50.390;8.640;2022-07-10T01:25:34;99911.31;;;12.18;100.00
54389;BME280;40975;50.390;8.640;2022-07-10T01:27:59;99908.66;;;12.18;100.00
54389;BME280;40975;50.390;8.640;2022-07-10T01:30:26;99913.31;;;12.25;100.00
54389;BME280;40975;50.390;8.640;2022-07-10T01:32:51;99899.69;;;12.28;100.00
54389;BME280;40975;50.390;8.640;2022-07-10T01:35:17;99904.75;;;12.32;100.00
54389;BME280;40975;50.390;8.640;2022-07-10T01:37:43;99901.25;;;12.31;100.00
54389;BME280;40975;50.390;8.640;2022-07-10T01:40:09;99904.50;;;12.35;100.00
54389;BME280;40975;50.390;8.640;2022-07-10T01:42:35;99907.97;;;12.35;100.00
54389;BME280;40975;50.390;8.640;2022-07-10T01:45:00;99887.66;;;12.24;100.00
54389;BME280;40975;50.390;8.640;2022-07-10T01:47:25;99911.91;;;12.31;100.00
54389;BME280;40975;50.390;8.640;2022-07-10T01:49:53;99912.88;;;12.30;100.00
54389;BME280;40975;50.390;8.640;2022-07-10T01:52:19;99913.00;;;12.28;100.00
54389;BME280;40975;50.390;8.640;2022-07-10T01:54:46;99919.19;;;12.29;100.00
54389;BME280;40975;50.390;8.640;2022-07-10T01:57:11;99917.22;;;12.21;100.00
54389;BME280;40975;50.390;8.640;2022-07-10T01:59:36;99918.91;;;12.22;100.00
54389;BME280;40975;50.390;8.640;2022-07-10T02:02:02;99918.19;;;12.20;100.00
54389;BME280;40975;50.390;8.640;2022-07-10T02:04:27;99912.16;;;12.18;100.00
54389;BME280;40975;50.390;8.640;2022-07-10T02:07:13;99916.91;;;12.15;100.00
54389;BME280;40975;50.390;8.640;2022-07-10T02:09:39;99912.84;;;12.10;100.00
54389;BME280;40975;50.390;8.640;2022-07-10T02:12:05;99907.25;;;12.04;100.00
54389;BME280;40975;50.390;8.640;2022-07-10T02:14:31;99902.47;;;11.97;100.00
54389;BME280;40975;50.390;8.640;2022-07-10T02:16:57;99903.53;;;11.95;100.00
54389;BME280;40975;50.390;8.640;2022-07-10T02:19:22;99902.97;;;11.91;100.00
54389;BME280;40975;50.390;8.640;2022-07-10T02:21:47;99903.53;;;11.85;100.00
54389;BME280;40975;50.390;8.640;2022-07-10T02:24:13;99902.81;;;11.83;100.00
54389;BME280;40975;50.390;8.640;2022-07-10T02:26:38;99902.38;;;11.78;100.00
54389;BME280;40975;50.390;8.640;2022-07-10T02:29:04;99912.31;;;11.76;100.00
54389;BME280;40975;50.390;8.640;2022-07-10T02:31:29;99898.56;;;11.71;100.00
54389;BME280;40975;50.390;8.640;2022-07-10T02:33:54;99902.50;;;11.66;100.00
54389;BME280;40975;50.390;8.640;2022-07-10T02:36:20;99896.72;;;11.61;100.00
54389;BME280;40975;50.390;8.640;2022-07-10T02:38:45;99898.66;;;11.59;100.00
54389;BME280;40975;50.390;8.640;2022-07-10T02:41:10;99899.53;;;11.60;100.00
54389;BME280;40975;50.390;8.640;2022-07-10T02:43:36;99905.34;;;11.54;100.00
54389;BME280;40975;50.390;8.640;2022-07-10T02:46:02;99892.06;;;11.54;100.00
54389;BME280;40975;50.390;8.640;2022-07-10T02:48:27;99901.16;;;11.51;100.00
54389;BME280;40975;50.390;8.640;2022-07-10T02:50:53;99886.72;;;11.44;100.00
54389;BME280;40975;50.390;8.640;2022-07-10T02:53:18;99905.34;;;11.54;100.00
54389;BME280;40975;50.390;8.640;2022-07-10T02:55:43;99896.56;;;11.53;100.00
54389;BME280;40975;50.390;8.640;2022-07-10T02:58:09;99897.97;;;11.57;100.00
54389;BME280;40975;50.390;8.640;2022-07-10T03:00:35;99899.63;;;11.48;100.00
54389;BME280;40975;50.390;8.640;2022-07-10T03:03:01;99889.25;;;11.45;100.00
54389;BME280;40975;50.390;8.640;2022-07-10T03:05:26;99890.75;;;11.38;100.00
54389;BME280;40975;50.390;8.640;2022-07-10T03:07:51;99891.47;;;11.40;100.00
54389;BME280;40975;50.390;8.640;2022-07-10T03:10:17;99884.63;;;11.38;100.00
54389;BME280;40975;50.390;8.640;2022-07-10T03:12:42;99888.34;;;11.35;100.00
54389;BME280;40975;50.390;8.640;2022-07-10T03:15:08;99886.94;;;11.31;100.00
54389;BME280;40975;50.390;8.640;2022-07-10T03:17:34;99889.28;;;11.24;100.00
54389;BME280;40975;50.390;8.640;2022-07-10T03:19:59;99887.03;;;11.19;100.00
54389;BME280;40975;50.390;8.640;2022-07-10T03:22:25;99896.50;;;11.12;100.00
54389;BME280;40975;50.390;8.640;2022-07-10T03:24:50;99901.22;;;11.09;100.00
54389;BME280;40975;50.390;8.640;2022-07-10T03:27:15;99903.56;;;11.02;100.00
54389;BME280;40975;50.390;8.640;2022-07-10T03:29:41;99911.41;;;11.03;100.00
54389;BME280;40975;50.390;8.640;2022-07-10T03:32:07;99909.84;;;11.01;100.00
54389;BME280;40975;50.390;8.640;2022-07-10T03:34:32;99911.66;;;11.00;100.00
54389;BME280;40975;50.390;8.640;2022-07-10T03:36:59;99913.97;;;10.94;100.00
54389;BME280;40975;50.390;8.640;2022-07-10T03:39:25;99919.19;;;10.95;100.00
54389;BME280;40975;50.390;8.640;2022-07-10T03:41:51;99919.03;;;10.97;100.00
54389;BME280;40975;50.390;8.640;2022-07-10T03:44:16;99920.59;;;10.99;100.00
54389;BME280;40975;50.390;8.640;2022-07-10T03:46:41;99921.16;;;11.03;100.00
54389;BME280;40975;50.390;8.640;2022-07-10T03:49:07;99919.91;;;10.97;100.00
54389;BME280;40975;50.390;8.640;2022-07-10T03:51:32;99907.84;;;10.93;100.00
54389;BME280;40975;50.390;8.640;2022-07-10T03:53:57;99915.66;;;10.95;100.00
54389;BME280;40975;50.390;8.640;2022-07-10T03:56:23;99921.44;;;11.00;100.00
54389;BME280;40975;50.390;8.640;2022-07-10T03:59:06;99909.00;;;11.00;100.00
54389;BME280;40975;50.390;8.640;2022-07-10T04:01:32;99901.69;;;10.93;100.00
54389;BME280;40975;50.390;8.640;2022-07-10T04:03:57;99903.50;;;10.92;100.00
54389;BME280;40975;50.390;8.640;2022-07-10T04:06:22;99919.56;;;10.91;100.00
54389;BME280;40975;50.390;8.640;2022-07-10T04:08:48;99920.34;;;11.02;100.00
54389;BME280;40975;50.390;8.640;2022-07-10T04:11:13;99911.94;;;10.97;100.00
54389;BME280;40975;50.390;8.640;2022-07-10T04:13:38;99916.75;;;11.13;100.00
54389;BME280;40975;50.390;8.640;2022-07-10T04:16:04;99918.00;;;11.09;100.00
54389;BME280;40975;50.390;8.640;2022-07-10T04:18:29;99925.06;;;11.20;100.00
54389;BME280;40975;50.390;8.640;2022-07-10T04:20:55;99907.50;;;11.29;100.00
54389;BME280;40975;50.390;8.640;2022-07-10T04:23:20;99909.63;;;11.35;100.00
54389;BME280;40975;50.390;8.640;2022-07-10T04:25:45;99920.69;;;11.40;100.00
54389;BME280;40975;50.390;8.640;2022-07-10T04:28:11;99925.47;;;11.46;100.00
54389;BME280;40975;50.390;8.640;2022-07-10T04:30:36;99919.09;;;11.59;100.00
54389;BME280;40975;50.390;8.640;2022-07-10T04:33:01;99926.00;;;11.71;100.00
54389;BME280;40975;50.390;8.640;2022-07-10T04:35:27;99932.16;;;11.72;100.00
54389;BME280;40975;50.390;8.640;2022-07-10T04:37:52;99929.81;;;11.78;100.00
54389;BME280;40975;50.390;8.640;2022-07-10T04:40:17;99935.56;;;11.83;100.00
54389;BME280;40975;50.390;8.640;2022-07-10T04:42:43;99929.41;;;11.83;100.00
54389;BME280;40975;50.390;8.640;2022-07-10T04:45:08;99932.47;;;11.78;100.00
54389;BME280;40975;50.390;8.640;2022-07-10T04:47:34;99936.28;;;11.86;100.00
54389;BME280;40975;50.390;8.640;2022-07-10T04:49:59;99935.16;;;11.88;100.00
54389;BME280;40975;50.390;8.640;2022-07-10T04:52:24;99933.28;;;12.00;100.00
54389;BME280;40975;50.390;8.640;2022-07-10T04:54:50;99933.16;;;12.21;100.00
54389;BME280;40975;50.390;8.640;2022-07-10T04:57:15;99939.63;;;12.19;100.00
54389;BME280;40975;50.390;8.640;2022-07-10T04:59:41;99944.25;;;12.26;100.00
54389;BME280;40975;50.390;8.640;2022-07-10T05:02:06;99941.19;;;12.31;100.00
54389;BME280;40975;50.390;8.640;2022-07-10T05:04:33;99945.53;;;12.42;100.00
54389;BME280;40975;50.390;8.640;2022-07-10T05:06:58;99951.41;;;12.46;100.00
54389;BME280;40975;50.390;8.640;2022-07-10T05:09:24;99954.09;;;12.46;100.00
54389;BME280;40975;50.390;8.640;2022-07-10T05:11:49;99945.13;;;12.47;100.00
54389;BME280;40975;50.390;8.640;2022-07-10T05:14:14;99947.94;;;12.45;100.00
54389;BME280;40975;50.390;8.640;2022-07-10T05:16:41;99947.63;;;12.38;100.00
54389;BME280;40975;50.390;8.640;2022-07-10T05:19:06;99945.41;;;12.53;100.00
54389;BME280;40975;50.390;8.640;2022-07-10T05:21:32;99950.03;;;12.61;100.00
54389;BME280;40975;50.390;8.640;2022-07-10T05:23:57;99946.81;;;12.57;100.00
54389;BME280;40975;50.390;8.640;2022-07-10T05:26:22;99944.97;;;12.68;100.00
54389;BME280;40975;50.390;8.640;2022-07-10T05:28:48;99948.78;;;12.75;100.00
54389;BME280;40975;50.390;8.640;2022-07-10T05:31:13;99959.00;;;12.70;100.00
54389;BME280;40975;50.390;8.640;2022-07-10T05:33:38;99953.81;;;12.78;100.00
54389;BME280;40975;50.390;8.640;2022-07-10T05:36:06;99953.53;;;12.81;100.00
54389;BME280;40975;50.390;8.640;2022-07-10T05:38:31;99952.69;;;12.90;100.00
54389;BME280;40975;50.390;8.640;2022-07-10T05:40:56;99949.16;;;13.00;100.00
54389;BME280;40975;50.390;8.640;2022-07-10T05:43:22;99955.75;;;13.05;100.00
54389;BME280;40975;50.390;8.640;2022-07-10T05:45:47;99952.41;;;13.13;100.00
54389;BME280;40975;50.390;8.640;2022-07-10T05:48:12;99962.19;;;13.13;100.00
54389;BME280;40975;50.390;8.640;2022-07-10T05:50:38;99958.66;;;13.32;100.00
54389;BME280;40975;50.390;8.640;2022-07-10T05:53:03;99961.47;;;13.40;100.00
54389;BME280;40975;50.390;8.640;2022-07-10T05:55:28;99961.03;;;13.45;100.00
54389;BME280;40975;50.390;8.640;2022-07-10T05:57:54;99966.50;;;13.53;100.00
54389;BME280;40975;50.390;8.640;2022-07-10T06:00:20;99968.75;;;13.38;100.00
54389;BME280;40975;50.390;8.640;2022-07-10T06:02:45;99963.88;;;13.43;100.00
54389;BME280;40975;50.390;8.640;2022-07-10T06:05:11;99965.28;;;13.47;100.00
54389;BME280;40975;50.390;8.640;2022-07-10T06:07:36;99974.09;;;13.48;100.00
54389;BME280;40975;50.390;8.640;2022-07-10T06:10:05;99966.50;;;13.53;100.00
54389;BME280;40975;50.390;8.640;2022-07-10T06:12:31;99961.59;;;13.48;100.00
54389;BME280;40975;50.390;8.640;2022-07-10T06:14:57;99964.69;;;13.53;100.00
54389;BME280;40975;50.390;8.640;2022-07-10T06:17:22;99975.63;;;13.60;100.00
54389;BME280;40975;50.390;8.640;2022-07-10T06:19:47;99969.97;;;13.63;100.00
54389;BME280;40975;50.390;8.640;2022-07-10T06:22:20;99976.81;;;13.76;100.00
54389;BME280;40975;50.390;8.640;2022-07-10T06:24:46;99975.13;;;13.75;100.00
54389;BME280;40975;50.390;8.640;2022-07-10T06:27:11;99980.19;;;13.68;100.00
54389;BME280;40975;50.390;8.640;2022-07-10T06:29:37;99979.81;;;13.63;100.00
54389;BME280;40975;50.390;8.640;2022-07-10T06:32:03;99971.47;;;13.76;100.00
54389;BME280;40975;50.390;8.640;2022-07-10T06:34:28;99978.47;;;13.87;100.00
54389;BME280;40975;50.390;8.640;2022-07-10T06:36:54;99973.25;;;13.85;100.00
54389;BME280;40975;50.390;8.640;2022-07-10T06:39:19;99978.41;;;13.96;100.00
54389;BME280;40975;50.390;8.640;2022-07-10T06:41:45;99974.38;;;13.92;100.00
54389;BME280;40975;50.390;8.640;2022-07-10T06:44:10;99974.38;;;13.92;100.00
54389;BME280;40975;50.390;8.640;2022-07-10T06:46:35;99973.22;;;13.95;100.00
54389;BME280;40975;50.390;8.640;2022-07-10T06:49:02;99972.47;;;14.03;100.00
54389;BME280;40975;50.390;8.640;2022-07-10T06:51:28;99971.34;;;14.05;100.00
54389;BME280;40975;50.390;8.640;2022-07-10T06:53:53;99969.22;;;14.09;100.00
54389;BME280;40975;50.390;8.640;2022-07-10T06:56:20;99972.69;;;14.19;100.00
54389;BME280;40975;50.390;8.640;2022-07-10T06:58:45;99971.19;;;14.07;100.00
54389;BME280;40975;50.390;8.640;2022-07-10T07:01:11;99965.50;;;14.20;100.00
54389;BME280;40975;50.390;8.640;2022-07-10T07:03:36;99971.81;;;14.19;100.00
54389;BME280;40975;50.390;8.640;2022-07-10T07:06:01;99974.47;;;14.28;100.00
54389;BME280;40975;50.390;8.640;2022-07-10T07:08:29;99976.06;;;14.39;100.00
54389;BME280;40975;50.390;8.640;2022-07-10T07:10:55;99970.06;;;14.55;100.00
54389;BME280;40975;50.390;8.640;2022-07-10T07:13:20;99960.22;;;14.56;100.00
54389;BME280;40975;50.390;8.640;2022-07-10T07:15:45;99967.88;;;14.69;100.00
54389;BME280;40975;50.390;8.640;2022-07-10T07:18:19;99976.97;;;14.76;100.00
54389;BME280;40975;50.390;8.640;2022-07-10T07:20:46;99976.03;;;14.85;100.00
54389;BME280;40975;50.390;8.640;2022-07-10T07:23:30;99978.88;;;14.84;100.00
54389;BME280;40975;50.390;8.640;2022-07-10T07:25:55;99975.34;;;14.83;100.00
54389;BME280;40975;50.390;8.640;2022-07-10T07:28:21;99978.94;;;14.92;100.00
54389;BME280;40975;50.390;8.640;2022-07-10T07:30:47;99979.88;;;15.01;100.00
54389;BME280;40975;50.390;8.640;2022-07-10T07:33:12;99979.25;;;15.07;100.00
54389;BME280;40975;50.390;8.640;2022-07-10T07:35:38;99982.78;;;14.89;98.31
54389;BME280;40975;50.390;8.640;2022-07-10T07:38:04;99975.28;;;14.93;99.17
54389;BME280;40975;50.390;8.640;2022-07-10T07:40:31;99976.66;;;14.97;99.68
54389;BME280;40975;50.390;8.640;2022-07-10T07:42:56;99979.28;;;15.15;96.72
54389;BME280;40975;50.390;8.640;2022-07-10T07:45:22;99983.09;;;15.31;95.83
54389;BME280;40975;50.390;8.640;2022-07-10T07:47:49;99982.13;;;15.32;96.32
54389;BME280;40975;50.390;8.640;2022-07-10T07:50:17;99985.66;;;15.41;97.72
54389;BME280;40975;50.390;8.640;2022-07-10T07:52:44;99970.25;;;15.34;98.29
54389;BME280;40975;50.390;8.640;2022-07-10T07:55:09;99981.78;;;15.35;99.21
54389;BME280;40975;50.390;8.640;2022-07-10T07:57:35;99977.84;;;15.47;97.97
54389;BME280;40975;50.390;8.640;2022-07-10T08:00:01;99970.31;;;15.43;97.21
54389;BME280;40975;50.390;8.640;2022-07-10T08:02:26;99980.53;;;15.47;94.59
54389;BME280;40975;50.390;8.640;2022-07-10T08:04:52;99976.91;;;15.57;99.08
54389;BME280;40975;50.390;8.640;2022-07-10T08:07:17;99978.38;;;15.51;98.82
54389;BME280;40975;50.390;8.640;2022-07-10T08:09:42;99973.31;;;15.48;97.51
54389;BME280;40975;50.390;8.640;2022-07-10T08:12:09;99967.06;;;15.57;100.00
54389;BME280;40975;50.390;8.640;2022-07-10T08:14:35;99963.22;;;15.60;95.25
54389;BME280;40975;50.390;8.640;2022-07-10T08:17:00;99969.13;;;15.72;98.10
54389;BME280;40975;50.390;8.640;2022-07-10T08:19:26;99964.28;;;15.75;95.38
54389;BME280;40975;50.390;8.640;2022-07-10T08:21:51;99964.91;;;15.87;97.38
54389;BME280;40975;50.390;8.640;2022-07-10T08:24:17;99964.41;;;15.92;92.71
54389;BME280;40975;50.390;8.640;2022-07-10T08:26:42;99959.78;;;15.76;93.59
54389;BME280;40975;50.390;8.640;2022-07-10T08:29:07;99966.03;;;15.84;95.03
54389;BME280;40975;50.390;8.640;2022-07-10T08:31:33;99965.56;;;15.89;92.07
54389;BME280;40975;50.390;8.640;2022-07-10T08:33:59;99958.47;;;15.80;93.34
54389;BME280;40975;50.390;8.640;2022-07-10T08:36:25;99961.13;;;16.06;95.93
54389;BME280;40975;50.390;8.640;2022-07-10T08:38:52;99961.00;;;16.24;93.52
54389;BME280;40975;50.390;8.640;2022-07-10T08:41:22;99962.50;;;16.19;91.77
54389;BME280;40975;50.390;8.640;2022-07-10T08:43:49;99958.75;;;17.93;85.39
54389;BME280;40975;50.390;8.640;2022-07-10T08:46:15;99957.06;;;18.09;85.49
54389;BME280;40975;50.390;8.640;2022-07-10T08:48:46;99960.81;;;18.77;83.54
54389;BME280;40975;50.390;8.640;2022-07-10T08:51:22;99961.75;;;19.31;79.15
54389;BME280;40975;50.390;8.640;2022-07-10T08:53:49;99956.31;;;19.99;76.14
54389;BME280;40975;50.390;8.640;2022-07-10T08:56:16;99962.03;;;21.35;71.62
54389;BME280;40975;50.390;8.640;2022-07-10T08:58:42;99963.19;;;21.82;67.79
54389;BME280;40975;50.390;8.640;2022-07-10T09:01:07;99968.50;;;25.22;54.42
54389;BME280;40975;50.390;8.640;2022-07-10T09:03:32;99966.34;;;26.73;50.54
54389;BME280;40975;50.390;8.640;2022-07-10T09:05:58;99958.75;;;27.65;45.48
54389;BME280;40975;50.390;8.640;2022-07-10T09:08:27;99959.94;;;27.57;44.20
54389;BME280;40975;50.390;8.640;2022-07-10T09:11:17;99963.31;;;25.20;51.22
54389;BME280;40975;50.390;8.640;2022-07-10T09:14:00;99968.19;;;22.34;55.19
54389;BME280;40975;50.390;8.640;2022-07-10T09:16:31;99963.97;;;20.91;59.75
54389;BME280;40975;50.390;8.640;2022-07-10T09:19:28;99971.16;;;20.47;63.83
54389;BME280;40975;50.390;8.640;2022-07-10T09:22:00;99956.16;;;21.03;63.84
54389;BME280;40975;50.390;8.640;2022-07-10T09:24:35;99973.84;;;20.25;59.71
54389;BME280;40975;50.390;8.640;2022-07-10T09:27:01;99971.22;;;19.72;62.64
54389;BME280;40975;50.390;8.640;2022-07-10T09:29:29;99963.41;;;19.32;63.11
54389;BME280;40975;50.390;8.640;2022-07-10T09:31:59;99973.25;;;18.78;65.56
54389;BME280;40975;50.390;8.640;2022-07-10T09:34:47;99967.69;;;18.57;72.68
54389;BME280;40975;50.390;8.640;2022-07-10T09:37:26;99957.06;;;18.63;69.45
54389;BME280;40975;50.390;8.640;2022-07-10T09:40:02;99950.59;;;18.49;67.35
54389;BME280;40975;50.390;8.640;2022-07-10T09:50:03;99936.47;;;21.59;58.60
54389;BME280;40975;50.390;8.640;2022-07-10T09:52:29;99939.06;;;20.52;59.90
54389;BME280;40975;50.390;8.640;2022-07-10T09:54:58;99935.63;;;21.02;60.05
54389;BME280;40975;50.390;8.640;2022-07-10T09:57:27;99934.28;;;24.31;51.62
54389;BME280;40975;50.390;8.640;2022-07-10T09:59:53;99927.22;;;25.94;45.34
54389;BME280;40975;50.390;8.640;2022-07-10T10:02:21;99930.38;;;27.89;41.99
54389;BME280;40975;50.390;8.640;2022-07-10T10:04:47;99926.13;;;25.65;44.50
54389;BME280;40975;50.390;8.640;2022-07-10T10:07:13;99918.94;;;24.12;47.86
54389;BME280;40975;50.390;8.640;2022-07-10T10:09:50;99920.81;;;22.51;51.31
54389;BME280;40975;50.390;8.640;2022-07-10T10:12:31;99910.22;;;22.63;52.79
54389;BME280;40975;50.390;8.640;2022-07-10T10:15:01;99919.06;;;22.37;51.13
54389;BME280;40975;50.390;8.640;2022-07-10T10:17:27;99919.84;;;21.62;52.37
54389;BME280;40975;50.390;8.640;2022-07-10T10:19:54;99915.06;;;24.33;48.71
54389;BME280;40975;50.390;8.640;2022-07-10T10:22:40;99915.22;;;24.06;48.04
54389;BME280;40975;50.390;8.640;2022-07-10T10:25:07;99915.44;;;23.32;48.69
54389;BME280;40975;50.390;8.640;2022-07-10T10:27:34;99906.00;;;22.34;50.59
54389;BME280;40975;50.390;8.640;2022-07-10T10:30:00;99910.31;;;21.66;52.19
54389;BME280;40975;50.390;8.640;2022-07-10T10:32:27;99905.41;;;23.46;50.41
54389;BME280;40975;50.390;8.640;2022-07-10T10:34:53;99905.66;;;25.37;46.28
54389;BME280;40975;50.390;8.640;2022-07-10T10:39:55;99901.66;;;27.46;41.45
54389;BME280;40975;50.390;8.640;2022-07-10T10:42:33;99906.31;;;27.10;39.00
54389;BME280;40975;50.390;8.640;2022-07-10T10:48:04;99897.25;;;27.57;39.85
54389;BME280;40975;50.390;8.640;2022-07-10T10:53:16;99903.09;;;23.43;47.05
54389;BME280;40975;50.390;8.640;2022-07-10T10:58:45;99904.75;;;21.46;50.34
54389;BME280;40975;50.390;8.640;2022-07-10T11:06:46;99893.31;;;20.80;54.91
54389;BME280;40975;50.390;8.640;2022-07-10T11:09:26;99891.84;;;22.32;51.51
54389;BME280;40975;50.390;8.640;2022-07-10T11:14:28;99884.63;;;23.85;45.40
54389;BME280;40975;50.390;8.640;2022-07-10T11:16:57;99879.81;;;22.68;46.46
54389;BME280;40975;50.390;8.640;2022-07-10T11:19:27;99891.69;;;22.67;50.11
54389;BME280;40975;50.390;8.640;2022-07-10T11:22:27;99891.94;;;21.90;48.50
54389;BME280;40975;50.390;8.640;2022-07-10T11:25:20;99882.19;;;22.02;52.51
54389;BME280;40975;50.390;8.640;2022-07-10T11:28:06;99882.31;;;21.74;51.22
54389;BME280;40975;50.390;8.640;2022-07-10T11:30:51;99884.78;;;21.76;54.02
54389;BME280;40975;50.390;8.640;2022-07-10T11:33:17;99883.59;;;21.85;52.83
54389;BME280;40975;50.390;8.640;2022-07-10T11:35:48;99874.91;;;21.96;52.92
54389;BME280;40975;50.390;8.640;2022-07-10T11:38:24;99889.63;;;21.52;51.99
54389;BME280;40975;50.390;8.640;2022-07-10T11:40:50;99882.13;;;21.12;50.22
54389;BME280;40975;50.390;8.640;2022-07-10T11:43:18;99871.94;;;21.07;51.72
54389;BME280;40975;50.390;8.640;2022-07-10T11:45:45;99875.00;;;21.04;53.37
54389;BME280;40975;50.390;8.640;2022-07-10T11:48:18;99873.72;;;20.93;53.13
54389;BME280;40975;50.390;8.640;2022-07-10T11:50:44;99880.63;;;21.03;54.42
54389;BME280;40975;50.390;8.640;2022-07-10T11:53:09;99871.97;;;20.86;54.60
54389;BME280;40975;50.390;8.640;2022-07-10T11:55:36;99866.28;;;20.74;52.68
54389;BME280;40975;50.390;8.640;2022-07-10T11:58:19;99877.63;;;20.91;53.42
54389;BME280;40975;50.390;8.640;2022-07-10T12:00:57;99873.84;;;21.13;55.40
54389;BME280;40975;50.390;8.640;2022-07-10T12:03:24;99881.16;;;21.26;53.87
54389;BME280;40975;50.390;8.640;2022-07-10T12:05:51;99884.69;;;21.20;54.08
54389;BME280;40975;50.390;8.640;2022-07-10T12:08:16;99880.31;;;21.54;55.25
54389;BME280;40975;50.390;8.640;2022-07-10T12:10:42;99880.72;;;21.16;51.63
54389;BME280;40975;50.390;8.640;2022-07-10T12:13:14;99881.44;;;21.32;53.06
54389;BME280;40975;50.390;8.640;2022-07-10T12:15:45;99883.97;;;21.40;52.67
54389;BME280;40975;50.390;8.640;2022-07-10T12:18:21;99881.44;;;21.32;54.58
54389;BME280;40975;50.390;8.640;2022-07-10T12:20:47;99880.75;;;21.23;54.60
54389;BME280;40975;50.390;8.640;2022-07-10T12:23:17;99893.31;;;20.80;55.23
54389;BME280;40975;50.390;8.640;2022-07-10T12:25:45;99883.13;;;21.04;55.62
54389;BME280;40975;50.390;8.640;2022-07-10T12:28:12;99882.06;;;21.69;54.72
54389;BME280;40975;50.390;8.640;2022-07-10T12:30:41;99878.38;;;21.83;53.41
54389;BME280;40975;50.390;8.640;2022-07-10T12:33:27;99888.66;;;22.15;52.75
54389;BME280;40975;50.390;8.640;2022-07-10T12:35:57;99886.28;;;22.54;52.36
54389;BME280;40975;50.390;8.640;2022-07-10T12:38:24;99888.34;;;22.72;51.78
54389;BME280;40975;50.390;8.640;2022-07-10T12:40:50;99892.72;;;22.52;49.71
54389;BME280;40975;50.390;8.640;2022-07-10T12:43:29;99884.00;;;22.91;50.45
54389;BME280;40975;50.390;8.640;2022-07-10T12:46:23;99888.28;;;22.38;49.65
54389;BME280;40975;50.390;8.640;2022-07-10T12:49:05;99877.47;;;22.25;52.20
54389;BME280;40975;50.390;8.640;2022-07-10T12:51:33;99881.69;;;22.54;51.30
54389;BME280;40975;50.390;8.640;2022-07-10T12:53:59;99883.91;;;22.37;51.51
54389;BME280;40975;50.390;8.640;2022-07-10T12:56:36;99876.38;;;22.05;50.73
54389;BME280;40975;50.390;8.640;2022-07-10T12:59:03;99875.75;;;22.03;52.20
54389;BME280;40975;50.390;8.640;2022-07-10T13:01:40;99882.00;;;22.17;51.91
54389;BME280;40975;50.390;8.640;2022-07-10T13:04:06;99874.50;;;22.13;51.31
54389;BME280;40975;50.390;8.640;2022-07-10T13:06:34;99878.06;;;22.07;51.98
54389;BME280;40975;50.390;8.640;2022-07-10T13:09:02;99868.63;;;21.82;52.76
54389;BME280;40975;50.390;8.640;2022-07-10T13:11:27;99879.78;;;21.66;53.94
54389;BME280;40975;50.390;8.640;2022-07-10T13:13:53;99879.38;;;21.34;53.08
54389;BME280;40975;50.390;8.640;2022-07-10T13:16:19;99878.66;;;20.90;56.20
54389;BME280;40975;50.390;8.640;2022-07-10T13:18:44;99889.97;;;20.78;54.94
54389;BME280;40975;50.390;8.640;2022-07-10T13:21:10;99890.69;;;20.44;56.52
54389;BME280;40975;50.390;8.640;2022-07-10T13:23:38;99898.22;;;20.12;57.95